sensor_id;sensor_type;location;lat;lon;timestamp;pressure;altitude;pressure_sealevel;temperature;humidity
70589;BME280;58152;49.202;18.744;2023-03-13T00:01:01;97160.22;;;5.79;45.77
70589;BME280;58152;49.202;18.744;2023-03-13T00:03:27;97165.34;;;5.82;45.59
70589;BME280;58152;49.202;18.744;2023-03-13T00:05:57;97170.63;;;5.79;45.71
70589;BME280;58152;49.202;18.744;2023-03-13T00:08:28;97170.63;;;5.79;45.88
70589;BME280;58152;49.202;18.744;2023-03-13T00:10:54;97173.25;;;5.79;45.67
70589;BME280;58152;49.202;18.744;2023-03-13T00:13:19;97172.34;;;5.80;45.94
70589;BME280;58152;49.202;18.744;2023-03-13T00:15:45;97169.72;;;5.82;46.16
70589;BME280;58152;49.202;18.744;2023-03-13T00:18:10;97169.72;;;5.82;46.23
70589;BME280;58152;49.202;18.744;2023-03-13T00:20:36;97154.16;;;5.79;46.17
70589;BME280;58152;49.202;18.744;2023-03-13T00:23:01;97164.56;;;5.79;46.27
70589;BME280;58152;49.202;18.744;2023-03-13T00:25:26;97167.25;;;5.77;46.52
70589;BME280;58152;49.202;18.744;2023-03-13T00:27:52;97157.75;;;5.75;46.62
70589;BME280;58152;49.202;18.744;2023-03-13T00:30:17;97159.44;;;5.76;46.84
70589;BME280;58152;49.202;18.744;2023-03-13T00:32:44;97165.50;;;5.76;46.58
70589;BME280;58152;49.202;18.744;2023-03-13T00:35:11;97150.97;;;5.69;46.56
70589;BME280;58152;49.202;18.744;2023-03-13T00:37:36;97148.25;;;5.74;46.67
70589;BME280;58152;49.202;18.744;2023-03-13T00:40:03;97156.00;;;5.75;46.87
70589;BME280;58152;49.202;18.744;2023-03-13T00:42:29;97145.72;;;5.71;47.33
70589;BME280;58152;49.202;18.744;2023-03-13T00:44:54;97135.38;;;5.68;46.84
70589;BME280;58152;49.202;18.744;2023-03-13T00:47:19;97144.22;;;5.64;46.87
70589;BME280;58152;49.202;18.744;2023-03-13T00:49:45;97137.28;;;5.63;46.78
70589;BME280;58152;49.202;18.744;2023-03-13T00:52:10;97122.66;;;5.58;46.74
70589;BME280;58152;49.202;18.744;2023-03-13T00:54:36;97133.06;;;5.58;47.20
70589;BME280;58152;49.202;18.744;2023-03-13T00:57:01;97126.25;;;5.54;46.95
70589;BME280;58152;49.202;18.744;2023-03-13T00:59:27;97115.88;;;5.53;47.30
70589;BME280;58152;49.202;18.744;2023-03-13T01:01:55;97130.59;;;5.54;46.97
70589;BME280;58152;49.202;18.744;2023-03-13T01:04:20;97127.13;;;5.53;47.13
70589;BME280;58152;49.202;18.744;2023-03-13T01:06:46;97119.38;;;5.52;47.42
70589;BME280;58152;49.202;18.744;2023-03-13T01:09:13;97125.63;;;5.46;47.10
70589;BME280;58152;49.202;18.744;2023-03-13T01:11:40;97139.44;;;5.48;47.16
70589;BME280;58152;49.202;18.744;2023-03-13T01:14:10;97127.38;;;5.46;47.40
70589;BME280;58152;49.202;18.744;2023-03-13T01:16:37;97123.03;;;5.45;47.62
70589;BME280;58152;49.202;18.744;2023-03-13T01:19:08;97112.81;;;5.39;47.48
70589;BME280;58152;49.202;18.744;2023-03-13T01:21:34;97121.34;;;5.44;47.56
70589;BME280;58152;49.202;18.744;2023-03-13T01:24:00;97131.72;;;5.45;47.56
70589;BME280;58152;49.202;18.744;2023-03-13T01:26:26;97117.13;;;5.40;47.59
70589;BME280;58152;49.202;18.744;2023-03-13T01:28:52;97128.31;;;5.43;47.52
70589;BME280;58152;49.202;18.744;2023-03-13T01:31:20;97119.78;;;5.38;47.64
70589;BME280;58152;49.202;18.744;2023-03-13T01:33:47;97130.97;;;5.40;47.90
70589;BME280;58152;49.202;18.744;2023-03-13T01:36:14;97126.78;;;5.36;47.78
70589;BME280;58152;49.202;18.744;2023-03-13T01:38:40;97128.44;;;5.39;47.88
70589;BME280;58152;49.202;18.744;2023-03-13T01:41:07;97129.28;;;5.39;48.10
70589;BME280;58152;49.202;18.744;2023-03-13T01:43:35;97132.72;;;5.41;48.22
70589;BME280;58152;49.202;18.744;2023-03-13T01:48:48;97144.81;;;5.42;48.66
70589;BME280;58152;49.202;18.744;2023-03-13T01:51:21;97139.66;;;5.41;48.54
70589;BME280;58152;49.202;18.744;2023-03-13T01:53:53;97140.50;;;5.41;48.22
70589;BME280;58152;49.202;18.744;2023-03-13T01:56:25;97129.38;;;5.36;48.59
70589;BME280;58152;49.202;18.744;2023-03-13T01:58:55;97138.84;;;5.39;48.48
70589;BME280;58152;49.202;18.744;2023-03-13T02:01:22;97127.66;;;5.35;48.68
70589;BME280;58152;49.202;18.744;2023-03-13T02:03:48;97134.59;;;5.36;49.12
70589;BME280;58152;49.202;18.744;2023-03-13T02:06:15;97132.91;;;5.33;48.94
70589;BME280;58152;49.202;18.744;2023-03-13T02:08:55;97129.41;;;5.34;49.58
70589;BME280;58152;49.202;18.744;2023-03-13T02:11:36;97126.94;;;5.30;50.13
70589;BME280;58152;49.202;18.744;2023-03-13T02:14:08;97140.72;;;5.33;50.25
70589;BME280;58152;49.202;18.744;2023-03-13T02:16:35;97133.03;;;5.29;50.94
70589;BME280;58152;49.202;18.744;2023-03-13T02:22:08;97125.19;;;5.30;52.71
70589;BME280;58152;49.202;18.744;2023-03-13T02:27:09;97129.53;;;5.30;52.35
70589;BME280;58152;49.202;18.744;2023-03-13T02:29:35;97132.13;;;5.31;52.16
70589;BME280;58152;49.202;18.744;2023-03-13T02:32:00;97149.44;;;5.32;52.14
70589;BME280;58152;49.202;18.744;2023-03-13T02:34:29;97143.31;;;5.33;52.09
70589;BME280;58152;49.202;18.744;2023-03-13T02:36:57;97129.59;;;5.28;52.45
70589;BME280;58152;49.202;18.744;2023-03-13T02:39:24;97133.81;;;5.32;52.13
70589;BME280;58152;49.202;18.744;2023-03-13T02:41:51;97146.94;;;5.28;52.37
70589;BME280;58152;49.202;18.744;2023-03-13T02:44:17;97142.53;;;5.30;52.03
70589;BME280;58152;49.202;18.744;2023-03-13T02:46:48;97140.03;;;5.27;52.17
70589;BME280;58152;49.202;18.744;2023-03-13T02:49:27;97152.94;;;5.31;51.87
70589;BME280;58152;49.202;18.744;2023-03-13T02:51:56;97146.09;;;5.27;52.14
70589;BME280;58152;49.202;18.744;2023-03-13T02:54:31;97149.56;;;5.28;52.34
70589;BME280;58152;49.202;18.744;2023-03-13T02:57:00;97162.44;;;5.31;52.41
70589;BME280;58152;49.202;18.744;2023-03-13T02:59:27;97166.94;;;5.26;52.64
70589;BME280;58152;49.202;18.744;2023-03-13T03:01:53;97168.72;;;5.24;52.43
70589;BME280;58152;49.202;18.744;2023-03-13T03:04:22;97180.78;;;5.26;52.90
70589;BME280;58152;49.202;18.744;2023-03-13T03:06:49;97180.03;;;5.23;52.75
70589;BME280;58152;49.202;18.744;2023-03-13T03:09:17;97178.41;;;5.19;53.12
70589;BME280;58152;49.202;18.744;2023-03-13T03:11:43;97183.50;;;5.22;53.15
70589;BME280;58152;49.202;18.744;2023-03-13T03:14:09;97173.22;;;5.17;53.13
70589;BME280;58152;49.202;18.744;2023-03-13T03:16:35;97170.72;;;5.14;53.28
70589;BME280;58152;49.202;18.744;2023-03-13T03:19:01;97176.66;;;5.19;53.99
70589;BME280;58152;49.202;18.744;2023-03-13T03:21:27;97174.31;;;5.10;54.39
70589;BME280;58152;49.202;18.744;2023-03-13T03:23:52;97177.75;;;5.10;54.48
70589;BME280;58152;49.202;18.744;2023-03-13T03:26:18;97180.34;;;5.10;54.52
70589;BME280;58152;49.202;18.744;2023-03-13T03:28:44;97178.66;;;5.09;54.94
70589;BME280;58152;49.202;18.744;2023-03-13T03:31:11;97188.97;;;5.13;54.74
70589;BME280;58152;49.202;18.744;2023-03-13T03:33:38;97184.59;;;5.15;55.36
70589;BME280;58152;49.202;18.744;2023-03-13T03:36:09;97186.34;;;5.14;55.32
70589;BME280;58152;49.202;18.744;2023-03-13T03:38:35;97185.50;;;5.12;55.28
70589;BME280;58152;49.202;18.744;2023-03-13T03:41:01;97194.16;;;5.13;55.54
70589;BME280;58152;49.202;18.744;2023-03-13T03:43:27;97199.34;;;5.13;56.07
70589;BME280;58152;49.202;18.744;2023-03-13T03:45:52;97191.69;;;5.08;55.90
70589;BME280;58152;49.202;18.744;2023-03-13T03:48:18;97185.63;;;5.07;55.89
70589;BME280;58152;49.202;18.744;2023-03-13T03:50:43;97181.38;;;5.05;55.91
70589;BME280;58152;49.202;18.744;2023-03-13T03:53:09;97179.56;;;5.07;56.04
70589;BME280;58152;49.202;18.744;2023-03-13T03:55:34;97181.31;;;5.06;56.28
70589;BME280;58152;49.202;18.744;2023-03-13T03:58:00;97183.97;;;5.05;56.30
70589;BME280;58152;49.202;18.744;2023-03-13T04:00:25;97189.06;;;5.08;56.82
70589;BME280;58152;49.202;18.744;2023-03-13T04:02:52;97198.63;;;5.09;56.83
70589;BME280;58152;49.202;18.744;2023-03-13T04:05:18;97195.22;;;5.05;56.56
70589;BME280;58152;49.202;18.744;2023-03-13T04:07:44;97183.19;;;5.01;56.62
70589;BME280;58152;49.202;18.744;2023-03-13T04:10:10;97193.47;;;5.06;56.80
70589;BME280;58152;49.202;18.744;2023-03-13T04:12:36;97183.25;;;5.00;56.73
70589;BME280;58152;49.202;18.744;2023-03-13T04:15:01;97195.19;;;5.07;57.22
70589;BME280;58152;49.202;18.744;2023-03-13T04:17:27;97186.66;;;5.02;56.99
70589;BME280;58152;49.202;18.744;2023-03-13T04:19:52;97185.81;;;5.01;57.29
70589;BME280;58152;49.202;18.744;2023-03-13T04:22:18;97182.34;;;5.01;56.99
70589;BME280;58152;49.202;18.744;2023-03-13T04:24:43;97177.94;;;5.03;57.30
70589;BME280;58152;49.202;18.744;2023-03-13T04:27:10;97172.78;;;5.01;57.23
70589;BME280;58152;49.202;18.744;2023-03-13T04:29:35;97174.44;;;5.04;57.50
70589;BME280;58152;49.202;18.744;2023-03-13T04:32:01;97185.63;;;5.07;57.59
70589;BME280;58152;49.202;18.744;2023-03-13T04:34:26;97157.25;;;4.98;57.61
70589;BME280;58152;49.202;18.744;2023-03-13T04:36:52;97165.91;;;4.99;57.49
70589;BME280;58152;49.202;18.744;2023-03-13T04:39:18;97164.94;;;5.03;57.51
70589;BME280;58152;49.202;18.744;2023-03-13T04:41:44;97161.53;;;5.01;57.57
70589;BME280;58152;49.202;18.744;2023-03-13T04:44:09;97164.09;;;5.02;58.01
70589;BME280;58152;49.202;18.744;2023-03-13T04:46:35;97152.06;;;4.98;58.06
70589;BME280;58152;49.202;18.744;2023-03-13T04:49:00;97159.78;;;5.01;57.82
70589;BME280;58152;49.202;18.744;2023-03-13T04:51:25;97159.78;;;5.01;58.55
70589;BME280;58152;49.202;18.744;2023-03-13T04:53:51;97152.06;;;4.98;58.00
70589;BME280;58152;49.202;18.744;2023-03-13T04:56:24;97163.28;;;5.00;58.62
70589;BME280;58152;49.202;18.744;2023-03-13T04:58:50;97157.25;;;5.00;58.24
70589;BME280;58152;49.202;18.744;2023-03-13T05:01:16;97151.28;;;4.95;58.23
70589;BME280;58152;49.202;18.744;2023-03-13T05:03:41;97149.56;;;4.95;58.29
70589;BME280;58152;49.202;18.744;2023-03-13T05:06:07;97162.47;;;4.98;58.30
70589;BME280;58152;49.202;18.744;2023-03-13T05:08:32;97144.50;;;4.89;58.65
70589;BME280;58152;49.202;18.744;2023-03-13T05:10:58;97147.09;;;4.91;58.57
70589;BME280;58152;49.202;18.744;2023-03-13T05:13:23;97160.03;;;4.92;58.39
70589;BME280;58152;49.202;18.744;2023-03-13T05:15:49;97149.81;;;4.86;58.66
70589;BME280;58152;49.202;18.744;2023-03-13T05:18:14;97154.06;;;4.89;58.65
70589;BME280;58152;49.202;18.744;2023-03-13T05:20:40;97146.44;;;4.81;59.09
70589;BME280;58152;49.202;18.744;2023-03-13T05:23:05;97151.56;;;4.84;58.95
70589;BME280;58152;49.202;18.744;2023-03-13T05:25:31;97152.44;;;4.84;59.32
70589;BME280;58152;49.202;18.744;2023-03-13T05:27:56;97148.13;;;4.83;59.22
70589;BME280;58152;49.202;18.744;2023-03-13T05:30:22;97155.72;;;4.91;59.37
70589;BME280;58152;49.202;18.744;2023-03-13T05:32:47;97154.97;;;4.88;59.49
70589;BME280;58152;49.202;18.744;2023-03-13T05:35:13;97148.06;;;4.85;59.18
70589;BME280;58152;49.202;18.744;2023-03-13T05:37:38;97143.78;;;4.84;59.47
70589;BME280;58152;49.202;18.744;2023-03-13T05:40:04;97150.56;;;4.90;59.44
70589;BME280;58152;49.202;18.744;2023-03-13T05:42:30;97147.16;;;4.88;59.26
70589;BME280;58152;49.202;18.744;2023-03-13T05:44:58;97143.78;;;4.84;59.32
70589;BME280;58152;49.202;18.744;2023-03-13T05:47:39;97156.66;;;4.89;59.16
70589;BME280;58152;49.202;18.744;2023-03-13T05:50:06;97145.47;;;4.85;59.29
70589;BME280;58152;49.202;18.744;2023-03-13T05:52:32;97150.72;;;4.83;59.46
70589;BME280;58152;49.202;18.744;2023-03-13T05:54:58;97156.72;;;4.87;59.23
70589;BME280;58152;49.202;18.744;2023-03-13T05:57:23;97169.53;;;4.93;59.65
70589;BME280;58152;49.202;18.744;2023-03-13T05:59:49;97156.53;;;4.93;59.42
70589;BME280;58152;49.202;18.744;2023-03-13T06:02:14;97158.22;;;4.96;59.43
70589;BME280;58152;49.202;18.744;2023-03-13T06:04:40;97157.25;;;4.98;59.04
70589;BME280;58152;49.202;18.744;2023-03-13T06:07:05;97159.00;;;4.98;59.14
70589;BME280;58152;49.202;18.744;2023-03-13T06:09:31;97167.59;;;5.01;59.38
70589;BME280;58152;49.202;18.744;2023-03-13T06:11:56;97167.53;;;5.03;59.57
70589;BME280;58152;49.202;18.744;2023-03-13T06:14:22;97165.00;;;5.01;59.48
70589;BME280;58152;49.202;18.744;2023-03-13T06:16:47;97158.94;;;5.01;59.33
70589;BME280;58152;49.202;18.744;2023-03-13T06:19:13;97160.53;;;5.06;59.41
70589;BME280;58152;49.202;18.744;2023-03-13T06:21:39;97159.63;;;5.07;59.40
70589;BME280;58152;49.202;18.744;2023-03-13T06:24:04;97158.78;;;5.07;59.32
70589;BME280;58152;49.202;18.744;2023-03-13T06:26:30;97157.94;;;5.06;59.23
70589;BME280;58152;49.202;18.744;2023-03-13T06:28:55;97164.63;;;5.15;59.64
70589;BME280;58152;49.202;18.744;2023-03-13T06:31:21;97163.78;;;5.13;59.50
70589;BME280;58152;49.202;18.744;2023-03-13T06:33:52;97166.38;;;5.15;59.07
70589;BME280;58152;49.202;18.744;2023-03-13T06:36:19;97168.06;;;5.16;59.56
70589;BME280;58152;49.202;18.744;2023-03-13T06:38:44;97162.16;;;5.10;59.45
70589;BME280;58152;49.202;18.744;2023-03-13T06:41:09;97171.59;;;5.15;59.52
70589;BME280;58152;49.202;18.744;2023-03-13T06:43:35;97172.50;;;5.12;59.56
70589;BME280;58152;49.202;18.744;2023-03-13T06:46:04;97175.88;;;5.16;59.74
70589;BME280;58152;49.202;18.744;2023-03-13T06:48:29;97176.72;;;5.16;59.52
70589;BME280;58152;49.202;18.744;2023-03-13T06:50:55;97168.06;;;5.16;59.59
70589;BME280;58152;49.202;18.744;2023-03-13T06:53:21;97181.88;;;5.19;59.13
70589;BME280;58152;49.202;18.744;2023-03-13T06:55:46;97166.28;;;5.18;59.66
70589;BME280;58152;49.202;18.744;2023-03-13T06:58:13;97168.81;;;5.21;59.29
70589;BME280;58152;49.202;18.744;2023-03-13T07:00:38;97161.97;;;5.18;59.55
70589;BME280;58152;49.202;18.744;2023-03-13T07:03:05;97169.53;;;5.26;59.66
70589;BME280;58152;49.202;18.744;2023-03-13T07:05:30;97155.69;;;5.25;59.04
70589;BME280;58152;49.202;18.744;2023-03-13T07:07:56;97149.56;;;5.28;59.48
70589;BME280;58152;49.202;18.744;2023-03-13T07:10:21;97155.47;;;5.33;59.60
70589;BME280;58152;49.202;18.744;2023-03-13T07:12:47;97146.81;;;5.32;59.30
70589;BME280;58152;49.202;18.744;2023-03-13T07:15:13;97158.75;;;5.40;59.23
70589;BME280;58152;49.202;18.744;2023-03-13T07:17:38;97156.16;;;5.40;59.14
70589;BME280;58152;49.202;18.744;2023-03-13T07:20:04;97144.88;;;5.39;58.93
70589;BME280;58152;49.202;18.744;2023-03-13T07:22:32;97149.06;;;5.45;58.96
70589;BME280;58152;49.202;18.744;2023-03-13T07:24:57;97140.41;;;5.44;58.96
70589;BME280;58152;49.202;18.744;2023-03-13T07:27:23;97139.53;;;5.45;59.01
70589;BME280;58152;49.202;18.744;2023-03-13T07:29:48;97135.19;;;5.44;58.52
70589;BME280;58152;49.202;18.744;2023-03-13T07:32:14;97137.81;;;5.44;59.07
70589;BME280;58152;49.202;18.744;2023-03-13T07:34:39;97118.94;;;5.38;59.21
70589;BME280;58152;49.202;18.744;2023-03-13T07:37:05;97124.06;;;5.41;59.28
70589;BME280;58152;49.202;18.744;2023-03-13T07:39:30;97132.66;;;5.43;59.33
70589;BME280;58152;49.202;18.744;2023-03-13T07:41:56;97132.59;;;5.44;59.00
70589;BME280;58152;49.202;18.744;2023-03-13T07:44:21;97129.97;;;5.46;59.16
70589;BME280;58152;49.202;18.744;2023-03-13T07:46:47;97129.84;;;5.50;59.31
70589;BME280;58152;49.202;18.744;2023-03-13T07:49:14;97128.88;;;5.54;59.24
70589;BME280;58152;49.202;18.744;2023-03-13T07:51:39;97114.84;;;5.58;59.18
70589;BME280;58152;49.202;18.744;2023-03-13T07:54:05;97112.09;;;5.63;59.31
70589;BME280;58152;49.202;18.744;2023-03-13T07:56:30;97106.72;;;5.69;59.27
70589;BME280;58152;49.202;18.744;2023-03-13T07:58:56;97121.94;;;5.83;59.22
70589;BME280;58152;49.202;18.744;2023-03-13T08:01:24;97115.03;;;5.82;58.87
70589;BME280;58152;49.202;18.744;2023-03-13T08:03:50;97112.28;;;5.86;59.12
70589;BME280;58152;49.202;18.744;2023-03-13T08:06:18;97108.66;;;5.91;58.82
70589;BME280;58152;49.202;18.744;2023-03-13T08:08:44;97109.44;;;5.96;59.09
70589;BME280;58152;49.202;18.744;2023-03-13T08:11:12;97099.88;;;5.96;59.14
70589;BME280;58152;49.202;18.744;2023-03-13T08:13:39;97093.56;;;6.03;58.58
70589;BME280;58152;49.202;18.744;2023-03-13T08:16:17;97084.84;;;6.04;58.79
70589;BME280;58152;49.202;18.744;2023-03-13T08:18:45;97083.97;;;6.05;58.97
70589;BME280;58152;49.202;18.744;2023-03-13T08:21:12;97076.09;;;6.07;59.24
70589;BME280;58152;49.202;18.744;2023-03-13T08:23:38;97079.31;;;6.14;59.27
70589;BME280;58152;49.202;18.744;2023-03-13T08:28:33;97078.31;;;6.19;59.31
70589;BME280;58152;49.202;18.744;2023-03-13T08:31:06;97073.81;;;6.23;59.49
70589;BME280;58152;49.202;18.744;2023-03-13T08:33:31;97074.72;;;6.22;59.55
70589;BME280;58152;49.202;18.744;2023-03-13T08:35:57;97067.72;;;6.24;59.50
70589;BME280;58152;49.202;18.744;2023-03-13T08:38:24;97069.50;;;6.23;59.48
70589;BME280;58152;49.202;18.744;2023-03-13T08:40:55;97058.00;;;6.29;59.66
70589;BME280;58152;49.202;18.744;2023-03-13T08:43:21;97051.75;;;6.34;59.99
70589;BME280;58152;49.202;18.744;2023-03-13T08:45:53;97061.69;;;6.48;60.09
70589;BME280;58152;49.202;18.744;2023-03-13T08:48:19;97056.19;;;6.57;59.78
70589;BME280;58152;49.202;18.744;2023-03-13T08:50:45;97042.91;;;6.63;59.88
70589;BME280;58152;49.202;18.744;2023-03-13T08:53:10;97039.47;;;6.63;59.55
70589;BME280;58152;49.202;18.744;2023-03-13T08:55:35;97053.16;;;6.70;59.50
70589;BME280;58152;49.202;18.744;2023-03-13T08:58:01;97050.38;;;6.74;59.35
70589;BME280;58152;49.202;18.744;2023-03-13T09:00:26;97046.88;;;6.75;59.24
70589;BME280;58152;49.202;18.744;2023-03-13T09:02:52;97047.56;;;6.80;59.62
70589;BME280;58152;49.202;18.744;2023-03-13T09:05:17;97056.91;;;6.86;59.27
70589;BME280;58152;49.202;18.744;2023-03-13T09:07:42;97055.84;;;6.92;59.00
70589;BME280;58152;49.202;18.744;2023-03-13T09:10:08;97055.56;;;6.99;59.46
70589;BME280;58152;49.202;18.744;2023-03-13T09:12:34;97050.25;;;7.02;59.06
70589;BME280;58152;49.202;18.744;2023-03-13T09:14:59;97064.75;;;7.11;59.26
70589;BME280;58152;49.202;18.744;2023-03-13T09:17:25;97050.53;;;7.18;58.46
70589;BME280;58152;49.202;18.744;2023-03-13T09:19:50;97047.72;;;7.24;58.62
70589;BME280;58152;49.202;18.744;2023-03-13T09:22:16;97048.09;;;7.37;58.92
70589;BME280;58152;49.202;18.744;2023-03-13T09:24:41;97034.88;;;7.42;58.37
70589;BME280;58152;49.202;18.744;2023-03-13T09:27:09;97028.47;;;7.50;58.20
70589;BME280;58152;49.202;18.744;2023-03-13T09:29:34;97035.75;;;7.64;58.35
70589;BME280;58152;49.202;18.744;2023-03-13T09:32:04;97026.00;;;7.69;57.98
70589;BME280;58152;49.202;18.744;2023-03-13T09:34:29;97024.03;;;7.74;57.87
70589;BME280;58152;49.202;18.744;2023-03-13T09:36:56;97016.84;;;7.81;58.02
70589;BME280;58152;49.202;18.744;2023-03-13T09:39:21;97010.88;;;7.99;58.17
70589;BME280;58152;49.202;18.744;2023-03-13T09:41:54;97010.00;;;8.21;57.61
70589;BME280;58152;49.202;18.744;2023-03-13T09:44:27;96986.63;;;8.38;56.80
70589;BME280;58152;49.202;18.744;2023-03-13T09:47:23;96981.94;;;8.46;56.69
70589;BME280;58152;49.202;18.744;2023-03-13T09:49:51;96970.56;;;8.47;56.29
70589;BME280;58152;49.202;18.744;2023-03-13T09:52:27;96973.78;;;8.54;56.15
70589;BME280;58152;49.202;18.744;2023-03-13T09:55:04;96979.19;;;8.70;56.74
70589;BME280;58152;49.202;18.744;2023-03-13T10:00:18;96960.56;;;8.96;55.44
70589;BME280;58152;49.202;18.744;2023-03-13T10:02:54;96955.56;;;9.10;55.18
70589;BME280;58152;49.202;18.744;2023-03-13T10:05:22;96955.13;;;9.20;55.39
70589;BME280;58152;49.202;18.744;2023-03-13T10:07:48;96952.38;;;9.23;55.11
70589;BME280;58152;49.202;18.744;2023-03-13T10:10:17;96953.09;;;9.26;55.07
70589;BME280;58152;49.202;18.744;2023-03-13T10:12:45;96951.16;;;9.30;53.78
70589;BME280;58152;49.202;18.744;2023-03-13T10:17:45;96940.03;;;9.62;51.22
70589;BME280;58152;49.202;18.744;2023-03-13T10:22:55;96949.31;;;9.87;50.91
70589;BME280;58152;49.202;18.744;2023-03-13T10:25:34;96935.16;;;9.91;49.83
70589;BME280;58152;49.202;18.744;2023-03-13T10:28:00;96934.06;;;9.95;50.39
70589;BME280;58152;49.202;18.744;2023-03-13T10:30:30;96933.63;;;10.04;49.48
70589;BME280;58152;49.202;18.744;2023-03-13T10:32:59;96927.75;;;9.99;49.62
70589;BME280;58152;49.202;18.744;2023-03-13T10:35:32;96912.28;;;9.95;49.21
70589;BME280;58152;49.202;18.744;2023-03-13T10:38:04;96919.03;;;9.99;48.28
70589;BME280;58152;49.202;18.744;2023-03-13T10:40:30;96914.88;;;9.95;49.06
70589;BME280;58152;49.202;18.744;2023-03-13T10:43:18;96925.19;;;9.98;48.51
70589;BME280;58152;49.202;18.744;2023-03-13T10:45:43;96919.97;;;9.98;48.27
70589;BME280;58152;49.202;18.744;2023-03-13T10:48:12;96933.16;;;9.96;48.29
70589;BME280;58152;49.202;18.744;2023-03-13T10:50:42;96936.28;;;10.03;47.23
70589;BME280;58152;49.202;18.744;2023-03-13T10:55:51;96923.00;;;10.25;47.82
70589;BME280;58152;49.202;18.744;2023-03-13T10:58:40;96908.97;;;10.26;46.39
70589;BME280;58152;49.202;18.744;2023-03-13T11:01:29;96915.44;;;10.36;46.77
70589;BME280;58152;49.202;18.744;2023-03-13T11:06:50;96893.84;;;10.81;46.22
70589;BME280;58152;49.202;18.744;2023-03-13T11:09:17;96882.84;;;10.90;46.68
70589;BME280;58152;49.202;18.744;2023-03-13T11:11:50;96880.72;;;10.97;46.50
70589;BME280;58152;49.202;18.744;2023-03-13T11:14:21;96879.44;;;10.88;45.39
70589;BME280;58152;49.202;18.744;2023-03-13T11:17:02;96875.22;;;10.86;44.66
70589;BME280;58152;49.202;18.744;2023-03-13T11:33:53;96887.31;;;11.52;45.13
70589;BME280;58152;49.202;18.744;2023-03-13T11:36:34;96878.44;;;11.38;43.85
70589;BME280;58152;49.202;18.744;2023-03-13T11:39:39;96887.69;;;11.30;42.94
70589;BME280;58152;49.202;18.744;2023-03-13T11:56:07;96870.13;;;10.99;45.29
70589;BME280;58152;49.202;18.744;2023-03-13T12:04:57;96844.63;;;10.85;45.43
70589;BME280;58152;49.202;18.744;2023-03-13T12:07:37;96854.13;;;10.87;45.21
70589;BME280;58152;49.202;18.744;2023-03-13T12:10:12;96853.19;;;10.88;46.20
70589;BME280;58152;49.202;18.744;2023-03-13T12:18:31;96871.06;;;10.82;44.84
70589;BME280;58152;49.202;18.744;2023-03-13T12:26:18;96851.31;;;10.75;45.88
70589;BME280;58152;49.202;18.744;2023-03-13T12:29:11;96849.63;;;10.74;45.49
70589;BME280;58152;49.202;18.744;2023-03-13T12:31:59;96851.31;;;10.75;45.77
70589;BME280;58152;49.202;18.744;2023-03-13T12:34:49;96836.41;;;10.75;45.54
70589;BME280;58152;49.202;18.744;2023-03-13T12:37:21;96831.84;;;10.79;46.29
70589;BME280;58152;49.202;18.744;2023-03-13T12:40:15;96818.91;;;10.76;45.79
70589;BME280;58152;49.202;18.744;2023-03-13T12:43:09;96827.34;;;10.81;45.79
70589;BME280;58152;49.202;18.744;2023-03-13T12:45:46;96826.44;;;10.82;46.21
70589;BME280;58152;49.202;18.744;2023-03-13T12:48:27;96828.13;;;10.83;45.75
70589;BME280;58152;49.202;18.744;2023-03-13T12:59:55;96837.78;;;10.82;45.68
70589;BME280;58152;49.202;18.744;2023-03-13T13:02:26;96837.00;;;10.80;45.89
70589;BME280;58152;49.202;18.744;2023-03-13T13:04:53;96834.56;;;10.77;46.48
70589;BME280;58152;49.202;18.744;2023-03-13T13:07:28;96837.19;;;10.77;45.45
70589;BME280;58152;49.202;18.744;2023-03-13T13:12:43;96841.06;;;10.70;45.78
70589;BME280;58152;49.202;18.744;2023-03-13T13:15:19;96840.13;;;10.71;46.15
70589;BME280;58152;49.202;18.744;2023-03-13T13:17:56;96837.69;;;10.68;45.59
70589;BME280;58152;49.202;18.744;2023-03-13T13:22:50;96845.72;;;10.65;46.07
70589;BME280;58152;49.202;18.744;2023-03-13T13:32:48;96837.34;;;10.58;46.73
70589;BME280;58152;49.202;18.744;2023-03-13T13:35:26;96828.53;;;10.59;46.27
70589;BME280;58152;49.202;18.744;2023-03-13T13:37:53;96839.19;;;10.56;47.41
70589;BME280;58152;49.202;18.744;2023-03-13T13:43:46;96824.38;;;10.55;47.68
70589;BME280;58152;49.202;18.744;2023-03-13T13:46:25;96842.66;;;10.57;48.31
70589;BME280;58152;49.202;18.744;2023-03-13T13:51:35;96845.38;;;10.55;48.49
70589;BME280;58152;49.202;18.744;2023-03-13T13:54:31;96841.97;;;10.53;48.42
70589;BME280;58152;49.202;18.744;2023-03-13T13:56:58;96847.31;;;10.52;48.54
70589;BME280;58152;49.202;18.744;2023-03-13T13:59:29;96853.56;;;10.49;49.19
70589;BME280;58152;49.202;18.744;2023-03-13T14:04:36;96861.69;;;10.45;49.11
70589;BME280;58152;49.202;18.744;2023-03-13T14:07:05;96857.78;;;10.52;48.90
70589;BME280;58152;49.202;18.744;2023-03-13T14:09:46;96845.84;;;10.46;49.62
70589;BME280;58152;49.202;18.744;2023-03-13T14:12:31;96830.88;;;10.48;49.54
70589;BME280;58152;49.202;18.744;2023-03-13T14:15:17;96814.81;;;10.54;50.09
70589;BME280;58152;49.202;18.744;2023-03-13T14:17:56;96790.88;;;10.60;49.96
70589;BME280;58152;49.202;18.744;2023-03-13T14:20:35;96788.84;;;10.65;50.03
70589;BME280;58152;49.202;18.744;2023-03-13T14:23:04;96813.75;;;10.74;49.41
70589;BME280;58152;49.202;18.744;2023-03-13T14:25:49;96808.16;;;10.64;50.20
70589;BME280;58152;49.202;18.744;2023-03-13T14:28:16;96813.41;;;10.64;49.86
70589;BME280;58152;49.202;18.744;2023-03-13T14:30:43;96811.88;;;10.60;49.83
70589;BME280;58152;49.202;18.744;2023-03-13T14:33:08;96801.47;;;10.59;50.24
70589;BME280;58152;49.202;18.744;2023-03-13T14:35:34;96800.69;;;10.57;50.00
70589;BME280;58152;49.202;18.744;2023-03-13T14:38:01;96804.09;;;10.59;50.30
70589;BME280;58152;49.202;18.744;2023-03-13T14:40:28;96793.66;;;10.57;49.94
70589;BME280;58152;49.202;18.744;2023-03-13T14:43:00;96799.00;;;10.56;50.05
70589;BME280;58152;49.202;18.744;2023-03-13T14:45:34;96810.34;;;10.56;49.97